Time;durP1;ratioP1;P1;durP2;ratioP2;P2;SDS_P1;SDS_P2;PMS_P1;PMS_P2;Temp;Humidity;BMP_temperature;BMP_pressure;BME280_temperature;BME280_humidity;BME280_pressure;Samples;Min_cycle;Max_cycle;Signal;HPM_P1;HPM_P2
2021/11/04 00:00:53;;;;;;;2.40;2.20;;;6.00;99.90;;;;;;5035047;28;20884;-51
2021/11/04 00:03:20;;;;;;;1.87;1.73;;;5.90;99.90;;;;;;5034969;28;20494;-51
2021/11/04 00:05:47;;;;;;;2.27;1.70;;;6.10;99.90;;;;;;5034907;28;20456;-51
2021/11/04 00:08:14;;;;;;;3.20;2.10;;;6.00;99.90;;;;;;5034720;28;20463;-50
2021/11/04 00:10:41;;;;;;;2.00;1.80;;;6.20;99.90;;;;;;5034213;28;20444;-51
2021/11/04 00:13:10;;;;;;;2.07;1.90;;;6.10;99.90;;;;;;5034896;28;20930;-52
2021/11/04 00:15:37;;;;;;;1.60;1.40;;;6.00;99.90;;;;;;5034627;28;20514;-50
2021/11/04 00:18:04;;;;;;;4.20;1.80;;;5.90;99.90;;;;;;5034689;28;20496;-51
2021/11/04 00:20:31;;;;;;;2.43;2.13;;;6.00;99.90;;;;;;5034042;28;20502;-51
2021/11/04 00:22:58;;;;;;;2.30;2.10;;;5.90;99.90;;;;;;5034451;28;20518;-51
2021/11/04 00:25:25;;;;;;;3.20;2.30;;;5.90;99.90;;;;;;5034435;28;20455;-51
2021/11/04 00:27:52;;;;;;;2.60;2.40;;;5.90;99.90;;;;;;5033967;28;20526;-51
2021/11/04 00:30:21;;;;;;;2.90;2.60;;;5.90;99.90;;;;;;5034404;28;20452;-51
2021/11/04 00:32:49;;;;;;;2.80;2.60;;;6.10;99.90;;;;;;5034641;28;20448;-51
2021/11/04 00:35:17;;;;;;;3.53;2.90;;;5.90;99.90;;;;;;5034265;28;20444;-51
2021/11/04 00:37:45;;;;;;;6.70;3.50;;;5.80;99.90;;;;;;5034199;28;20628;-51
2021/11/04 00:40:14;;;;;;;2.57;2.37;;;5.80;99.90;;;;;;5033930;28;20944;-51
2021/11/04 00:42:42;;;;;;;2.90;2.17;;;5.60;99.90;;;;;;5018421;28;20450;-51
2021/11/04 00:45:09;;;;;;;2.07;1.87;;;5.60;99.90;;;;;;5033176;28;20547;-51
2021/11/04 00:47:38;;;;;;;2.47;2.10;;;5.60;99.90;;;;;;5029569;28;20535;-50
2021/11/04 00:50:06;;;;;;;2.80;2.40;;;5.70;99.90;;;;;;5032633;28;20457;-51
2021/11/04 00:52:34;;;;;;;3.10;2.40;;;5.70;99.90;;;;;;5031166;28;20464;-51
2021/11/04 00:55:03;;;;;;;2.33;2.13;;;5.70;99.90;;;;;;5030559;28;20908;-51
2021/11/04 00:57:30;;;;;;;1.77;1.67;;;5.90;99.90;;;;;;5033360;28;20485;-50
2021/11/04 00:59:58;;;;;;;1.90;1.80;;;5.80;99.90;;;;;;5034241;28;20507;-49
2021/11/04 01:02:25;;;;;;;3.37;2.00;;;5.80;99.90;;;;;;5033226;28;20452;-49
2021/11/04 01:04:53;;;;;;;5.73;2.13;;;5.80;99.90;;;;;;5033800;28;20455;-49
2021/11/04 01:07:20;;;;;;;1.93;1.83;;;5.80;99.90;;;;;;5033615;28;20457;-49
2021/11/04 01:09:47;;;;;;;2.77;1.90;;;5.80;99.90;;;;;;5033298;28;20510;-49
2021/11/04 01:12:15;;;;;;;2.23;2.03;;;5.80;99.90;;;;;;5033752;28;20461;-49
2021/11/04 01:14:42;;;;;;;2.60;2.40;;;5.80;99.90;;;;;;5033888;28;20454;-49
2021/11/04 01:17:09;;;;;;;3.23;2.43;;;5.80;99.90;;;;;;5033734;28;20507;-48
2021/11/04 01:19:36;;;;;;;2.97;2.50;;;5.80;99.90;;;;;;5032723;28;20493;-49
2021/11/04 01:22:05;;;;;;;5.77;2.93;;;5.80;99.90;;;;;;5033282;28;20509;-49
2021/11/04 01:24:32;;;;;;;2.80;2.43;;;5.90;99.90;;;;;;5033063;28;20444;-49
2021/11/04 01:26:59;;;;;;;2.97;2.50;;;5.90;99.90;;;;;;5032722;28;20950;-50
2021/11/04 01:29:26;;;;;;;2.70;2.50;;;6.00;99.90;;;;;;5032598;28;20466;-50
2021/11/04 01:31:53;;;;;;;3.37;2.63;;;5.90;99.90;;;;;;5033314;28;20867;-50
2021/11/04 01:34:20;;;;;;;3.17;2.47;;;5.90;99.90;;;;;;5033659;28;20477;-50
2021/11/04 01:36:47;;;;;;;3.27;2.50;;;5.90;99.90;;;;;;5033832;28;20453;-50
2021/11/04 01:39:16;;;;;;;4.70;2.67;;;6.00;99.90;;;;;;5033585;28;20488;-50
2021/11/04 01:41:43;;;;;;;2.80;2.50;;;5.90;99.90;;;;;;5032892;28;20527;-50
2021/11/04 01:44:10;;;;;;;2.60;2.40;;;5.90;99.90;;;;;;5033512;28;20605;-50
2021/11/04 01:46:37;;;;;;;2.80;2.50;;;5.90;99.90;;;;;;5033063;28;20453;-50
2021/11/04 01:49:05;;;;;;;3.40;2.77;;;6.00;99.90;;;;;;5033197;28;20471;-50
2021/11/04 01:51:32;;;;;;;3.00;2.63;;;6.00;99.90;;;;;;5033294;28;20533;-49
2021/11/04 01:53:59;;;;;;;3.27;2.70;;;6.00;99.90;;;;;;5033461;28;20445;-50
2021/11/04 01:56:27;;;;;;;6.23;3.67;;;6.10;99.90;;;;;;5032972;28;20457;-49
2021/11/04 01:58:54;;;;;;;8.50;5.13;;;6.00;99.90;;;;;;5032459;28;20508;-49
2021/11/04 02:01:22;;;;;;;7.57;4.67;;;5.90;99.90;;;;;;5032502;28;20515;-50
2021/11/04 02:03:58;;;;;;;7.27;5.00;;;5.80;99.90;;;;;;5033392;28;20520;-50
2021/11/04 02:06:32;;;;;;;7.33;5.27;;;5.90;99.90;;;;;;5032546;28;20535;-50
2021/11/04 02:09:05;;;;;;;9.63;5.43;;;5.90;99.90;;;;;;5032989;28;20551;-50
2021/11/04 02:11:38;;;;;;;9.00;5.90;;;5.70;99.90;;;;;;5032472;28;21008;-49
2021/11/04 02:14:09;;;;;;;8.13;5.50;;;5.70;99.90;;;;;;5033324;28;20935;-50
2021/11/04 02:16:38;;;;;;;9.60;6.00;;;5.80;99.90;;;;;;5032745;28;20453;-50
2021/11/04 02:19:16;;;;;;;7.77;5.17;;;5.80;99.90;;;;;;5032659;28;20492;-49
2021/11/04 02:21:51;;;;;;;7.40;5.00;;;5.80;99.90;;;;;;5032328;28;20508;-50
2021/11/04 02:24:25;;;;;;;8.80;5.00;;;5.80;99.90;;;;;;5032727;28;20450;-49
2021/11/04 02:26:54;;;;;;;6.93;4.73;;;5.70;99.90;;;;;;5032919;28;20507;-50
2021/11/04 02:29:22;;;;;;;7.17;4.13;;;5.70;99.90;;;;;;5032250;28;20991;-50
2021/11/04 02:31:50;;;;;;;8.53;5.20;;;5.70;99.90;;;;;;5032422;28;20884;-50
2021/11/04 02:34:17;;;;;;;12.40;6.10;;;5.80;99.90;;;;;;5032388;28;20523;-50
2021/11/04 02:36:46;;;;;;;7.43;5.40;;;5.90;99.90;;;;;;5032466;28;20495;-50
2021/11/04 02:39:14;;;;;;;8.87;5.67;;;5.90;99.90;;;;;;5032267;28;20484;-50
2021/11/04 02:41:41;;;;;;;8.53;5.47;;;6.00;99.90;;;;;;5032299;28;20441;-50
2021/11/04 02:44:11;;;;;;;7.33;4.93;;;6.00;99.90;;;;;;5032099;28;20508;-50
2021/11/04 02:46:39;;;;;;;5.73;3.77;;;6.10;99.90;;;;;;5032030;28;20534;-50
2021/11/04 02:49:06;;;;;;;4.13;3.13;;;6.00;99.90;;;;;;5031563;28;20470;-50
2021/11/04 02:51:37;;;;;;;3.17;2.37;;;6.00;99.90;;;;;;5031727;28;20512;-49
2021/11/04 02:54:06;;;;;;;3.00;2.10;;;6.00;99.90;;;;;;5032346;28;20503;-50
2021/11/04 02:56:42;;;;;;;2.23;2.03;;;5.90;99.90;;;;;;5032037;28;20453;-49
2021/11/04 02:59:12;;;;;;;2.60;2.23;;;6.00;99.90;;;;;;5031710;28;20546;-49
2021/11/04 03:01:41;;;;;;;2.10;1.90;;;5.90;99.90;;;;;;5031501;28;20446;-50
2021/11/04 03:04:08;;;;;;;2.83;2.20;;;5.90;99.90;;;;;;5030927;28;20453;-50
2021/11/04 03:06:35;;;;;;;3.10;2.57;;;6.00;99.90;;;;;;5031729;28;20508;-49
2021/11/04 03:09:02;;;;;;;3.57;2.30;;;5.90;99.90;;;;;;5031898;28;20473;-50
2021/11/04 03:11:29;;;;;;;2.83;2.53;;;6.00;99.90;;;;;;5031854;28;20452;-50
2021/11/04 03:13:56;;;;;;;2.27;1.87;;;6.00;99.90;;;;;;5031649;28;20524;-50
2021/11/04 03:16:26;;;;;;;3.83;2.43;;;6.10;99.90;;;;;;5032461;28;20524;-50
2021/11/04 03:18:54;;;;;;;1.90;1.80;;;6.10;99.90;;;;;;5051361;28;20524;-50
2021/11/04 03:21:22;;;;;;;2.57;1.90;;;6.00;99.90;;;;;;5051531;28;20454;-49
2021/11/04 03:23:49;;;;;;;2.20;1.87;;;5.90;99.90;;;;;;5051543;28;20451;-50
2021/11/04 03:26:18;;;;;;;2.00;1.60;;;6.00;99.90;;;;;;5051611;28;20946;-50
2021/11/04 03:28:47;;;;;;;2.10;1.67;;;6.00;99.90;;;;;;5043123;28;20468;-50
2021/11/04 03:31:15;;;;;;;1.80;1.70;;;6.00;99.90;;;;;;5030817;28;20545;-50
2021/11/04 03:33:43;;;;;;;1.60;1.50;;;6.00;99.90;;;;;;5031682;28;20582;-50
2021/11/04 03:36:11;;;;;;;1.93;1.60;;;6.00;99.90;;;;;;5031319;28;20806;-50
2021/11/04 03:38:39;;;;;;;3.00;1.87;;;6.00;99.90;;;;;;5031110;28;20486;-49
2021/11/04 03:41:08;;;;;;;1.60;1.43;;;6.00;99.90;;;;;;5031515;28;20499;-49
2021/11/04 03:43:35;;;;;;;1.20;1.10;;;6.00;99.90;;;;;;5031524;28;20556;-50
2021/11/04 03:46:03;;;;;;;1.10;1.00;;;6.00;99.90;;;;;;5030675;28;20877;-50
2021/11/04 03:48:31;;;;;;;1.40;1.30;;;5.90;99.90;;;;;;5030826;28;20472;-50
2021/11/04 03:50:59;;;;;;;1.77;1.23;;;6.00;99.90;;;;;;5031055;28;20510;-50
2021/11/04 03:53:26;;;;;;;1.40;1.30;;;6.00;99.90;;;;;;5031432;28;20450;-50
2021/11/04 03:55:54;;;;;;;1.13;1.03;;;6.00;99.90;;;;;;5031457;28;21021;-50
2021/11/04 03:58:22;;;;;;;1.10;1.00;;;6.00;99.90;;;;;;5059546;22;20584;-52
2021/11/04 04:00:49;;;;;;;1.40;1.30;;;6.00;99.90;;;;;;5050583;28;20523;-52
2021/11/04 04:03:16;;;;;;;2.47;1.63;;;6.00;99.90;;;;;;5051215;28;20509;-53
2021/11/04 04:05:43;;;;;;;1.20;1.10;;;6.00;99.90;;;;;;5050986;28;20873;-53
2021/11/04 04:08:11;;;;;;;1.97;1.40;;;6.00;99.90;;;;;;5051153;28;20537;-53
2021/11/04 04:10:38;;;;;;;2.03;1.23;;;6.00;99.90;;;;;;5051277;28;20872;-53
2021/11/04 04:13:05;;;;;;;1.20;1.10;;;5.90;99.90;;;;;;5051212;28;20945;-52
2021/11/04 04:15:32;;;;;;;1.40;1.30;;;5.90;99.90;;;;;;5050794;28;20448;-53
2021/11/04 04:17:59;;;;;;;1.10;0.97;;;5.80;99.90;;;;;;5050687;28;20504;-52
2021/11/04 04:20:27;;;;;;;1.70;1.23;;;5.80;99.90;;;;;;5049998;28;20495;-52
2021/11/04 04:22:54;;;;;;;2.90;1.67;;;5.90;99.90;;;;;;5050832;28;20444;-53
2021/11/04 04:25:22;;;;;;;1.67;1.50;;;5.80;99.90;;;;;;5050928;28;20501;-53
2021/11/04 04:27:49;;;;;;;1.50;1.40;;;5.80;99.90;;;;;;5049818;28;20449;-53
2021/11/04 04:30:17;;;;;;;1.70;1.50;;;5.70;99.90;;;;;;5054188;28;20451;-52
2021/11/04 04:32:44;;;;;;;1.93;1.73;;;5.60;99.90;;;;;;5054357;28;20452;-53
2021/11/04 04:35:10;;;;;;;2.20;1.50;;;5.50;99.90;;;;;;5054519;28;20524;-53
2021/11/04 04:37:37;;;;;;;1.80;1.63;;;5.40;99.90;;;;;;5054704;28;20929;-52
2021/11/04 04:40:05;;;;;;;2.57;1.93;;;5.50;99.90;;;;;;5054786;28;20544;-52
2021/11/04 04:42:34;;;;;;;2.00;1.70;;;5.50;99.90;;;;;;5054283;28;20510;-52
2021/11/04 04:45:01;;;;;;;1.50;1.40;;;5.60;99.90;;;;;;5054670;28;20504;-52
2021/11/04 04:47:28;;;;;;;1.40;1.30;;;5.70;99.90;;;;;;5054606;28;20570;-53
2021/11/04 04:49:58;;;;;;;1.43;1.33;;;5.70;99.90;;;;;;5053862;28;21020;-52
2021/11/04 04:52:26;;;;;;;1.60;1.50;;;5.60;99.90;;;;;;5054863;28;20454;-53
2021/11/04 04:54:53;;;;;;;7.03;1.20;;;5.70;99.90;;;;;;5054517;28;20448;-52
2021/11/04 04:57:23;;;;;;;1.70;1.27;;;5.90;99.90;;;;;;5054140;28;20530;-52
2021/11/04 04:59:51;;;;;;;1.53;1.33;;;5.80;99.90;;;;;;5054121;28;20491;-52
2021/11/04 05:02:21;;;;;;;1.50;1.10;;;5.90;99.90;;;;;;5053738;28;20452;-52
2021/11/04 05:04:49;;;;;;;1.17;1.07;;;5.70;99.90;;;;;;5054534;28;20898;-52
2021/11/04 05:07:16;;;;;;;1.47;1.37;;;5.70;99.90;;;;;;5054147;28;20881;-52
2021/11/04 05:09:43;;;;;;;4.20;3.10;;;5.70;99.90;;;;;;5054096;28;20565;-53
2021/11/04 05:12:11;;;;;;;5.33;3.00;;;5.70;99.90;;;;;;5053973;28;20881;-53
2021/11/04 05:14:38;;;;;;;15.50;9.20;;;5.80;99.90;;;;;;5054082;28;20447;-52
2021/11/04 05:17:06;;;;;;;29.73;14.10;;;5.70;99.90;;;;;;5048434;28;20500;-52
2021/11/04 05:19:33;;;;;;;11.60;6.67;;;5.70;99.90;;;;;;5053356;28;21055;-52
2021/11/04 05:22:00;;;;;;;6.00;4.30;;;5.90;99.90;;;;;;5052421;28;20942;-53
2021/11/04 05:24:33;;;;;;;4.03;3.63;;;5.90;99.90;;;;;;5053721;28;20513;-52
2021/11/04 05:27:01;;;;;;;4.00;3.03;;;5.70;99.90;;;;;;5053297;28;20494;-52
2021/11/04 05:29:28;;;;;;;6.50;4.97;;;5.70;99.90;;;;;;5045004;28;20468;-52
2021/11/04 05:31:55;;;;;;;10.77;7.60;;;5.60;99.90;;;;;;5033791;28;20522;-53
2021/11/04 05:34:23;;;;;;;11.27;8.80;;;5.60;99.90;;;;;;5045432;28;20471;-52
2021/11/04 05:36:50;;;;;;;13.10;9.57;;;5.70;99.90;;;;;;5053346;28;20506;-53
2021/11/04 05:39:17;;;;;;;12.00;8.70;;;5.70;99.90;;;;;;5053283;28;21001;-52
2021/11/04 05:41:44;;;;;;;11.00;6.83;;;5.70;99.90;;;;;;5052827;28;20452;-52
2021/11/04 05:44:12;;;;;;;7.67;5.40;;;5.70;99.90;;;;;;5053346;28;20451;-53
2021/11/04 05:46:39;;;;;;;11.17;5.93;;;5.70;99.90;;;;;;5053629;28;20452;-53
2021/11/04 05:49:06;;;;;;;8.20;4.80;;;5.70;99.90;;;;;;5053313;28;20973;-52
2021/11/04 05:51:34;;;;;;;3.90;3.23;;;5.70;99.90;;;;;;5052655;28;20950;-53
2021/11/04 05:54:01;;;;;;;4.50;3.03;;;5.80;99.90;;;;;;5052506;28;20865;-53
2021/11/04 05:56:28;;;;;;;2.97;2.67;;;5.80;99.90;;;;;;5053213;28;20451;-52
2021/11/04 05:58:55;;;;;;;4.87;4.13;;;5.90;99.90;;;;;;5052523;28;20494;-53
2021/11/04 06:01:27;;;;;;;2.60;2.40;;;5.90;99.90;;;;;;5052337;28;20456;-53
2021/11/04 06:03:54;;;;;;;3.20;2.60;;;5.80;99.90;;;;;;5052969;28;20455;-53
2021/11/04 06:06:21;;;;;;;3.07;2.30;;;5.80;99.90;;;;;;5053022;28;20457;-53
2021/11/04 06:08:49;;;;;;;6.50;3.63;;;5.60;99.90;;;;;;5052524;28;20471;-53
2021/11/04 06:11:16;;;;;;;7.67;4.90;;;5.70;99.90;;;;;;5051857;28;20448;-52
2021/11/04 06:13:43;;;;;;;7.43;3.33;;;5.70;99.90;;;;;;5052588;28;20530;-52
2021/11/04 06:16:14;;;;;;;3.07;2.77;;;5.70;99.90;;;;;;5053090;28;20456;-54
2021/11/04 06:18:41;;;;;;;4.13;2.97;;;5.80;99.90;;;;;;5052463;28;20479;-53
2021/11/04 06:21:08;;;;;;;4.60;4.20;;;5.80;99.90;;;;;;5052322;28;20456;-53
2021/11/04 06:23:35;;;;;;;5.40;3.33;;;5.80;99.90;;;;;;5052652;28;20996;-53
2021/11/04 06:26:04;;;;;;;6.23;2.97;;;5.80;99.90;;;;;;5052088;28;20953;-52
2021/11/04 06:28:31;;;;;;;3.43;3.00;;;5.70;99.90;;;;;;5052575;28;20483;-53
2021/11/04 06:30:57;;;;;;;2.97;2.70;;;5.70;99.90;;;;;;5052116;28;20953;-53
2021/11/04 06:33:24;;;;;;;4.37;2.87;;;5.60;99.90;;;;;;5052099;28;20519;-52
2021/11/04 06:35:53;;;;;;;3.00;2.70;;;5.60;99.90;;;;;;5059205;28;20500;-52
2021/11/04 06:38:21;;;;;;;3.30;2.50;;;5.60;99.90;;;;;;5056824;28;20476;-52
2021/11/04 06:40:48;;;;;;;5.30;3.07;;;5.80;99.90;;;;;;5052426;28;20537;-53
2021/11/04 06:43:17;;;;;;;3.90;3.20;;;5.90;99.90;;;;;;5052339;28;21075;-53
2021/11/04 06:45:48;;;;;;;3.00;2.70;;;5.80;99.90;;;;;;5052625;28;20456;-52
2021/11/04 06:48:23;;;;;;;4.60;2.57;;;5.70;99.90;;;;;;5052176;28;20475;-53
2021/11/04 06:50:51;;;;;;;3.70;2.60;;;5.80;99.90;;;;;;5051971;28;20443;-53
2021/11/04 06:53:22;;;;;;;2.67;2.33;;;5.80;99.90;;;;;;5051307;28;20448;-52
2021/11/04 06:55:52;;;;;;;2.53;2.20;;;5.80;99.90;;;;;;5052143;28;20949;-52
2021/11/04 06:58:23;;;;;;;2.77;2.47;;;5.60;99.90;;;;;;5052200;28;20536;-52
2021/11/04 07:00:52;;;;;;;3.00;2.13;;;5.70;99.90;;;;;;5051812;28;20483;-52
2021/11/04 07:03:23;;;;;;;2.80;2.60;;;5.90;99.90;;;;;;5051151;28;20462;-52
2021/11/04 07:05:57;;;;;;;3.80;2.43;;;5.80;99.90;;;;;;5051537;28;20835;-53
2021/11/04 07:08:25;;;;;;;3.40;2.27;;;5.70;99.90;;;;;;5050964;28;20476;-53
2021/11/04 07:10:58;;;;;;;3.20;2.60;;;5.80;99.90;;;;;;5051021;28;20957;-53
2021/11/04 07:13:28;;;;;;;4.50;2.60;;;5.90;99.90;;;;;;5051973;28;20472;-53
2021/11/04 07:15:56;;;;;;;2.70;2.50;;;5.80;99.90;;;;;;5051953;28;20451;-53
2021/11/04 07:18:24;;;;;;;2.97;2.47;;;6.00;99.90;;;;;;5051411;28;20468;-53
2021/11/04 07:20:57;;;;;;;2.20;2.00;;;5.90;99.90;;;;;;5051349;28;20542;-53
2021/11/04 07:23:35;;;;;;;1.50;1.37;;;5.80;99.90;;;;;;5051181;28;20491;-53
2021/11/04 07:26:04;;;;;;;2.37;1.97;;;5.80;99.90;;;;;;5048462;28;20597;-53
2021/11/04 07:28:34;;;;;;;2.13;1.63;;;6.00;99.90;;;;;;5051831;28;20606;-53
2021/11/04 07:31:01;;;;;;;1.43;1.33;;;6.00;99.90;;;;;;5051632;28;20440;-53
2021/11/04 07:33:34;;;;;;;1.33;1.23;;;6.00;99.90;;;;;;5051641;28;20453;-52
2021/11/04 07:36:03;;;;;;;1.67;1.53;;;6.00;99.90;;;;;;5051713;28;20453;-53
2021/11/04 07:38:34;;;;;;;1.30;1.20;;;6.10;99.90;;;;;;5051509;28;20908;-53
2021/11/04 07:41:01;;;;;;;1.90;1.70;;;6.00;99.90;;;;;;5049850;28;20561;-53
2021/11/04 07:43:30;;;;;;;4.60;2.57;;;6.00;99.90;;;;;;5049285;28;20494;-53
2021/11/04 07:45:59;;;;;;;6.93;3.47;;;6.00;99.90;;;;;;5051331;28;20942;-53
2021/11/04 07:48:26;;;;;;;4.37;2.97;;;6.00;99.90;;;;;;5051475;28;20987;-53
2021/11/04 07:50:54;;;;;;;6.90;3.17;;;6.00;99.90;;;;;;5051139;28;21003;-52
2021/11/04 07:53:21;;;;;;;4.33;3.30;;;6.00;99.90;;;;;;5051330;28;20447;-53
2021/11/04 07:55:48;;;;;;;6.60;3.77;;;6.00;99.90;;;;;;5051637;28;20494;-53
2021/11/04 07:58:15;;;;;;;6.43;3.43;;;6.00;99.90;;;;;;5051465;28;20476;-52
2021/11/04 08:00:43;;;;;;;4.60;3.90;;;5.90;99.90;;;;;;5051389;28;20529;-54
2021/11/04 08:03:12;;;;;;;6.47;3.33;;;6.00;99.90;;;;;;5052156;28;20948;-55
2021/11/04 08:05:39;;;;;;;4.37;3.63;;;6.10;99.90;;;;;;5042845;28;20934;-55
2021/11/04 08:08:06;;;;;;;5.53;3.83;;;6.10;99.90;;;;;;5053348;28;20484;-55
2021/11/04 08:10:33;;;;;;;6.07;4.80;;;6.10;99.90;;;;;;5041588;28;20448;-55
2021/11/04 08:13:06;;;;;;;4.47;4.03;;;6.10;99.90;;;;;;5055021;28;20208;-54
2021/11/04 08:15:34;;;;;;;4.90;3.73;;;6.20;99.90;;;;;;5055156;28;20818;-55
2021/11/04 08:18:01;;;;;;;5.97;4.57;;;6.20;99.90;;;;;;5054738;28;20498;-54
2021/11/04 08:20:30;;;;;;;5.23;3.70;;;6.30;99.90;;;;;;5054413;28;20493;-54
2021/11/04 08:22:57;;;;;;;5.77;4.10;;;6.10;99.90;;;;;;5054349;28;20451;-54
2021/11/04 08:25:25;;;;;;;5.37;3.90;;;6.10;99.90;;;;;;5054691;28;20451;-54
2021/11/04 08:27:53;;;;;;;5.40;4.10;;;6.10;99.90;;;;;;5054810;28;20456;-55
2021/11/04 08:30:21;;;;;;;5.03;4.13;;;6.10;99.90;;;;;;5054634;28;20451;-55
2021/11/04 08:32:48;;;;;;;4.10;2.93;;;6.20;99.90;;;;;;5054666;28;20933;-54
2021/11/04 08:35:15;;;;;;;4.90;3.83;;;6.20;99.90;;;;;;5054669;28;20443;-56
2021/11/04 08:37:45;;;;;;;9.23;5.30;;;6.30;99.90;;;;;;5054158;28;20451;-55
2021/11/04 08:40:13;;;;;;;6.40;4.60;;;6.30;99.90;;;;;;5053811;28;20477;-54
2021/11/04 08:42:41;;;;;;;6.57;3.90;;;6.30;99.90;;;;;;5054324;28;20524;-56
2021/11/04 08:45:09;;;;;;;5.70;4.83;;;6.20;99.90;;;;;;5054056;28;20451;-54
2021/11/04 08:47:37;;;;;;;3.40;3.10;;;6.30;99.90;;;;;;5051766;28;20459;-55
2021/11/04 08:50:06;;;;;;;4.70;3.70;;;6.20;99.90;;;;;;5054112;28;20468;-57
2021/11/04 08:52:33;;;;;;;9.47;4.07;;;6.40;99.90;;;;;;5042796;28;20949;-55
2021/11/04 08:55:02;;;;;;;3.60;2.83;;;6.40;99.90;;;;;;5054105;28;20447;-55
2021/11/04 08:57:29;;;;;;;3.60;2.87;;;6.30;99.90;;;;;;5054103;28;20451;-55
2021/11/04 08:59:56;;;;;;;2.90;2.23;;;6.40;99.90;;;;;;5053805;28;20993;-55
2021/11/04 09:02:25;;;;;;;3.90;2.33;;;6.30;99.90;;;;;;5054305;28;20451;-54
2021/11/04 09:04:53;;;;;;;2.60;2.40;;;6.30;99.90;;;;;;5054484;28;20544;-56
2021/11/04 09:07:21;;;;;;;2.40;2.20;;;6.20;99.90;;;;;;5054437;28;20896;-56
2021/11/04 09:09:49;;;;;;;2.03;1.90;;;6.40;99.90;;;;;;5054172;28;20465;-55
2021/11/04 09:12:22;;;;;;;1.80;1.70;;;6.40;99.90;;;;;;5053763;28;20879;-55
2021/11/04 09:14:49;;;;;;;2.87;1.60;;;6.30;99.90;;;;;;5053244;28;20452;-55
2021/11/04 09:17:17;;;;;;;1.70;1.60;;;6.20;99.90;;;;;;5054400;28;20513;-54
2021/11/04 09:19:45;;;;;;;2.53;1.63;;;6.30;99.90;;;;;;5054136;28;20467;-55
2021/11/04 09:22:12;;;;;;;2.10;1.90;;;6.40;99.90;;;;;;5053868;28;20448;-56
2021/11/04 09:24:39;;;;;;;2.07;1.90;;;6.50;99.90;;;;;;5054423;28;20475;-55
2021/11/04 09:27:07;;;;;;;5.07;2.50;;;6.20;99.90;;;;;;5053910;28;20447;-56
2021/11/04 09:29:36;;;;;;;2.10;1.90;;;6.20;99.90;;;;;;5053260;28;20471;-55
2021/11/04 09:32:06;;;;;;;2.30;1.60;;;6.20;99.90;;;;;;5053769;28;20543;-55
2021/11/04 09:34:33;;;;;;;1.40;1.30;;;6.30;99.90;;;;;;5053777;28;20460;-55
2021/11/04 09:37:00;;;;;;;1.90;1.50;;;6.40;99.90;;;;;;5053780;28;20451;-55
2021/11/04 09:39:27;;;;;;;2.23;1.90;;;6.30;99.90;;;;;;5053649;28;20490;-55
2021/11/04 09:41:55;;;;;;;1.67;1.50;;;6.30;99.90;;;;;;5053431;28;21090;-55
2021/11/04 09:44:22;;;;;;;2.43;2.00;;;6.20;99.90;;;;;;5053185;28;20517;-55
2021/11/04 09:46:50;;;;;;;2.77;2.00;;;6.40;99.90;;;;;;5054219;28;20497;-55
2021/11/04 09:49:18;;;;;;;1.40;1.30;;;6.50;99.90;;;;;;5053563;28;20471;-55
2021/11/04 09:51:45;;;;;;;2.00;1.37;;;6.60;99.90;;;;;;5053240;28;20453;-56
2021/11/04 09:54:12;;;;;;;2.03;1.40;;;6.50;99.90;;;;;;5053312;28;20497;-55
2021/11/04 09:56:39;;;;;;;2.70;1.27;;;6.60;99.90;;;;;;5053399;28;20456;-55
2021/11/04 09:59:07;;;;;;;2.27;1.93;;;6.60;99.90;;;;;;5069563;22;20566;-50
2021/11/04 10:01:35;;;;;;;1.80;1.40;;;6.70;99.90;;;;;;5032262;28;20484;-50
2021/11/04 10:04:05;;;;;;;1.43;1.33;;;6.60;99.90;;;;;;5033074;28;20952;-50
2021/11/04 10:06:34;;;;;;;1.70;1.60;;;6.60;99.90;;;;;;5033047;28;20927;-49
2021/11/04 10:09:03;;;;;;;2.27;2.03;;;6.60;99.90;;;;;;5032924;28;20534;-50
2021/11/04 10:11:33;;;;;;;1.50;1.40;;;6.70;99.90;;;;;;5032930;28;20527;-50
2021/11/04 10:14:03;;;;;;;1.50;1.40;;;6.70;99.90;;;;;;5032525;28;20449;-50
2021/11/04 10:16:32;;;;;;;2.30;1.80;;;6.70;99.90;;;;;;5027551;28;20958;-50
2021/11/04 10:19:04;;;;;;;3.67;2.13;;;6.80;99.90;;;;;;5012923;28;20465;-50
2021/11/04 10:21:33;;;;;;;2.70;2.20;;;6.90;99.90;;;;;;5025150;28;21079;-49
2021/11/04 10:24:01;;;;;;;1.93;1.80;;;7.00;99.90;;;;;;5032729;28;20487;-49
2021/11/04 10:26:30;;;;;;;2.53;1.40;;;6.80;99.90;;;;;;5032726;28;20452;-50
2021/11/04 10:29:00;;;;;;;1.70;1.60;;;7.00;99.90;;;;;;5031356;28;21003;-49
2021/11/04 10:31:36;;;;;;;1.80;1.60;;;6.80;99.90;;;;;;5032415;28;20446;-50
2021/11/04 10:34:06;;;;;;;1.47;1.37;;;6.80;99.90;;;;;;5032531;28;20444;-49
2021/11/04 10:36:35;;;;;;;3.27;1.80;;;6.90;99.90;;;;;;5032714;28;20445;-50
2021/11/04 10:39:02;;;;;;;2.00;1.70;;;7.00;99.90;;;;;;5032385;28;20468;-50
2021/11/04 10:41:31;;;;;;;2.10;1.50;;;7.00;99.90;;;;;;5031607;28;21005;-50
2021/11/04 10:44:03;;;;;;;2.47;1.63;;;7.10;99.90;;;;;;5032191;28;20503;-49
2021/11/04 10:46:32;;;;;;;1.90;1.80;;;7.10;99.90;;;;;;5031249;28;20448;-50
2021/11/04 10:49:01;;;;;;;1.90;1.70;;;7.20;99.90;;;;;;5031953;28;20999;-50
2021/11/04 10:51:30;;;;;;;2.73;2.10;;;7.00;99.90;;;;;;5031862;28;20471;-49
2021/11/04 10:54:00;;;;;;;2.70;1.83;;;7.10;99.90;;;;;;5032081;28;20456;-50
2021/11/04 10:56:27;;;;;;;3.27;1.80;;;7.10;99.90;;;;;;5031184;28;20522;-49
2021/11/04 10:58:57;;;;;;;2.20;2.10;;;7.10;99.90;;;;;;5030888;28;20490;-49
2021/11/04 11:01:33;;;;;;;2.70;2.20;;;7.00;99.90;;;;;;5031753;28;20493;-50
2021/11/04 11:04:04;;;;;;;3.43;2.30;;;6.90;99.90;;;;;;5015941;28;20449;-50
2021/11/04 11:06:34;;;;;;;2.60;1.87;;;6.90;99.90;;;;;;5011995;28;20454;-50
2021/11/04 11:09:05;;;;;;;1.67;1.57;;;7.00;99.90;;;;;;5011955;28;20891;-50
2021/11/04 11:11:32;;;;;;;2.40;1.60;;;7.10;99.90;;;;;;5011636;28;20457;-49
2021/11/04 11:13:59;;;;;;;2.10;1.30;;;7.10;99.90;;;;;;5012070;28;20449;-49
2021/11/04 11:16:26;;;;;;;1.87;1.60;;;7.00;99.90;;;;;;5029516;28;20456;-50
2021/11/04 11:18:58;;;;;;;2.03;1.70;;;7.10;99.90;;;;;;5031209;28;20888;-49
2021/11/04 11:21:30;;;;;;;2.40;2.10;;;7.20;99.90;;;;;;5031223;28;20902;-49
2021/11/04 11:24:00;;;;;;;4.50;2.07;;;7.00;99.90;;;;;;5033852;28;20446;-49
2021/11/04 11:26:27;;;;;;;2.13;1.93;;;7.00;99.90;;;;;;5043086;28;20460;-50
2021/11/04 11:28:57;;;;;;;2.67;2.47;;;7.20;99.90;;;;;;5038862;28;21043;-49
2021/11/04 11:31:26;;;;;;;3.43;2.43;;;7.20;99.90;;;;;;5018079;28;20510;-50
2021/11/04 11:34:26;;;;;;;2.50;2.30;;;7.30;99.90;;;;;;5031391;28;20448;-49
2021/11/04 11:37:16;;;;;;;2.03;1.80;;;7.30;99.90;;;;;;5014911;28;20453;-50
2021/11/04 11:39:50;;;;;;;2.40;2.10;;;7.40;99.90;;;;;;5011279;28;20471;-49
2021/11/04 11:42:19;;;;;;;3.03;2.23;;;7.60;99.90;;;;;;5011380;28;20832;-50
2021/11/04 11:44:52;;;;;;;2.20;2.00;;;7.60;99.90;;;;;;5018418;28;20451;-50
2021/11/04 11:47:21;;;;;;;2.27;1.73;;;7.40;99.90;;;;;;5030106;28;20456;-49
2021/11/04 11:50:09;;;;;;;1.93;1.83;;;7.50;99.90;;;;;;5031329;28;20473;-50
2021/11/04 11:52:51;;;;;;;2.50;2.10;;;7.50;99.90;;;;;;5031005;28;20458;-49
2021/11/04 11:55:22;;;;;;;2.03;1.80;;;7.60;99.90;;;;;;5030764;28;20452;-50
2021/11/04 11:58:18;;;;;;;2.17;1.90;;;7.60;99.90;;;;;;5031187;28;20452;-50
2021/11/04 12:00:52;;;;;;;2.20;2.00;;;7.70;99.90;;;;;;5030918;28;20549;-50
2021/11/04 12:04:00;;;;;;;2.40;2.17;;;7.60;99.90;;;;;;5030473;28;20456;-50
2021/11/04 12:06:52;;;;;;;2.30;2.10;;;7.70;99.90;;;;;;4989459;28;20446;-50
2021/11/04 12:09:46;;;;;;;3.20;2.90;;;7.80;99.90;;;;;;5031013;28;20471;-50
2021/11/04 12:12:44;;;;;;;5.10;4.00;;;7.80;99.90;;;;;;5030502;28;20448;-51
2021/11/04 12:15:11;;;;;;;2.33;2.13;;;7.90;99.90;;;;;;5031138;28;20531;-51
2021/11/04 12:17:38;;;;;;;2.30;1.97;;;7.90;99.90;;;;;;5031325;28;20456;-51
2021/11/04 12:20:07;;;;;;;2.77;1.90;;;8.00;99.90;;;;;;5030976;28;20998;-51
2021/11/04 12:22:38;;;;;;;2.70;1.90;;;8.20;99.90;;;;;;5030913;28;20484;-51
2021/11/04 12:25:07;;;;;;;2.20;2.00;;;8.30;99.90;;;;;;5020976;28;20456;-51
2021/11/04 12:27:37;;;;;;;2.00;1.80;;;8.20;99.90;;;;;;5030830;28;20470;-51
2021/11/04 12:30:16;;;;;;;1.77;1.63;;;8.30;99.90;;;;;;5031373;28;20482;-51
2021/11/04 12:32:44;;;;;;;2.33;2.17;;;8.30;99.90;;;;;;5031075;28;20832;-51
2021/11/04 12:35:12;;;;;;;2.43;2.07;;;8.50;99.90;;;;;;5031066;28;20540;-50
2021/11/04 12:37:40;;;;;;;1.77;1.63;;;8.50;99.90;;;;;;5031099;28;21020;-51
2021/11/04 12:40:09;;;;;;;1.87;1.70;;;8.40;99.90;;;;;;5030561;28;20527;-51
2021/11/04 12:42:36;;;;;;;2.00;1.47;;;8.40;99.90;;;;;;5030500;28;20484;-51
2021/11/04 12:45:03;;;;;;;1.80;1.70;;;8.50;99.90;;;;;;5024489;28;20511;-51
2021/11/04 12:47:32;;;;;;;1.77;1.67;;;8.50;99.90;;;;;;5027428;28;20951;-50
2021/11/04 12:49:59;;;;;;;3.13;2.00;;;8.50;99.90;;;;;;5031313;28;20469;-50
2021/11/04 12:52:28;;;;;;;1.80;1.70;;;8.50;99.90;;;;;;5034301;28;21064;-51
2021/11/04 12:54:56;;;;;;;1.80;1.70;;;8.50;99.90;;;;;;5034222;28;20499;-51
2021/11/04 12:57:25;;;;;;;2.53;1.80;;;8.70;99.90;;;;;;5035224;28;20448;-51
2021/11/04 12:59:55;;;;;;;1.80;1.60;;;8.90;99.90;;;;;;5034030;28;20488;-51
2021/11/04 13:02:28;;;;;;;1.87;1.73;;;9.00;99.90;;;;;;5034218;28;20481;-51
2021/11/04 13:04:59;;;;;;;1.80;1.70;;;9.30;99.90;;;;;;5034490;28;20452;-51
2021/11/04 13:07:28;;;;;;;1.50;1.40;;;9.40;99.90;;;;;;5034316;28;20510;-51